Time;durP1;ratioP1;P1;durP2;ratioP2;P2;SDS_P1;SDS_P2;PMS_P1;PMS_P2;Temp;Humidity;BMP_temperature;BMP_pressure;BME280_temperature;BME280_humidity;BME280_pressure;Samples;Min_cycle;Max_cycle;Signal;HPM_P1;HPM_P2
2022/05/05 00:01:43;;;;;;;;;;;10.40;99.90;;;;;;5046020;28;19987;-73
2022/05/05 00:04:09;;;;;;;;;;;10.20;99.90;;;;;;5044858;28;19909;-74
2022/05/05 00:06:35;;;;;;;;;;;10.10;99.90;;;;;;5043198;28;19912;-76
2022/05/05 00:09:01;;;;;;;;;;;10.00;99.90;;;;;;5045505;28;20247;-74
2022/05/05 00:14:31;;;;;;;;;;;10.10;99.90;;;;;;5042968;28;20294;-73
2022/05/05 00:16:58;;;;;;;;;;;10.10;99.90;;;;;;5045280;28;19948;-74
2022/05/05 00:19:24;;;;;;;;;;;10.10;99.90;;;;;;5043525;28;19909;-75
2022/05/05 00:21:50;;;;;;;;;;;10.00;99.90;;;;;;5033522;28;21570;-76
2022/05/05 00:24:18;;;;;;;;;;;9.80;99.90;;;;;;5050492;28;19909;-73
2022/05/05 00:26:45;;;;;;;;;;;9.80;99.90;;;;;;5041995;28;19920;-73
2022/05/05 00:29:11;;;;;;;;;;;9.70;99.90;;;;;;5048986;28;19916;-72
2022/05/05 00:31:36;;;;;;;;;;;9.60;99.90;;;;;;5049025;28;20310;-76
2022/05/05 00:34:02;;;;;;;;;;;9.50;99.90;;;;;;5047945;28;19916;-76
2022/05/05 00:36:27;;;;;;;;;;;9.60;99.90;;;;;;5040818;28;19919;-76
2022/05/05 00:38:53;;;;;;;;;;;9.70;99.90;;;;;;5050110;28;19913;-74
2022/05/05 00:41:19;;;;;;;;;;;9.70;99.90;;;;;;5046436;28;20004;-75
2022/05/05 00:43:44;;;;;;;;;;;9.70;99.90;;;;;;5047335;28;19916;-75
2022/05/05 00:46:10;;;;;;;;;;;9.60;99.90;;;;;;5033153;28;19909;-75
2022/05/05 00:48:35;;;;;;;;;;;9.60;99.90;;;;;;5045101;28;19951;-75
2022/05/05 00:51:01;;;;;;;;;;;9.60;99.90;;;;;;5045914;28;20346;-73
2022/05/05 00:53:27;;;;;;;;;;;9.60;99.90;;;;;;5044695;28;20358;-73
2022/05/05 00:55:55;;;;;;;;;;;9.60;99.90;;;;;;5029396;28;19917;-75
2022/05/05 00:58:22;;;;;;;;;;;9.70;99.90;;;;;;5042666;28;20276;-73
2022/05/05 01:00:47;;;;;;;;;;;9.80;99.90;;;;;;5046664;28;20333;-74
2022/05/05 01:03:14;;;;;;;;;;;10.00;99.90;;;;;;5048119;28;19923;-74
2022/05/05 01:05:40;;;;;;;;;;;10.10;99.90;;;;;;5048772;28;19905;-75
2022/05/05 01:08:05;;;;;;;;;;;10.10;99.90;;;;;;5049910;28;19908;-75
2022/05/05 01:10:32;;;;;;;;;;;10.10;99.90;;;;;;5055658;28;19955;-74
2022/05/05 01:12:57;;;;;;;;;;;10.10;99.90;;;;;;5050321;28;19920;-74
2022/05/05 01:15:23;;;;;;;;;;;10.10;99.90;;;;;;5048115;28;19912;-75
2022/05/05 01:17:49;;;;;;;;;;;10.20;99.90;;;;;;5032894;28;19994;-74
2022/05/05 01:20:16;;;;;;;;;;;10.20;99.90;;;;;;5042134;28;20192;-74
2022/05/05 01:22:42;;;;;;;;;;;10.10;99.90;;;;;;5041819;28;19905;-76
2022/05/05 01:30:36;;;;;;;;;;;10.20;99.90;;;;;;5049674;28;19959;-75
2022/05/05 01:33:09;;;;;;;;;;;9.90;99.90;;;;;;5043736;28;20137;-74
2022/05/05 01:35:34;;;;;;;;;;;9.60;99.90;;;;;;5039256;28;19909;-75
2022/05/05 01:38:00;;;;;;;;;;;9.50;99.90;;;;;;5048731;28;20347;-74
2022/05/05 01:40:26;;;;;;;;;;;9.50;99.90;;;;;;5041702;28;20000;-75
2022/05/05 01:42:51;;;;;;;;;;;9.60;99.90;;;;;;5050247;28;20339;-74
2022/05/05 01:45:17;;;;;;;;;;;9.70;99.90;;;;;;5050075;28;19909;-73
2022/05/05 01:47:42;;;;;;;;;;;9.80;99.90;;;;;;5046018;28;19909;-74
2022/05/05 01:50:08;;;;;;;;;;;9.70;99.90;;;;;;5045229;28;19909;-74
2022/05/05 01:52:34;;;;;;;;;;;9.80;99.90;;;;;;5048627;28;19917;-74
2022/05/05 01:55:00;;;;;;;;;;;9.90;99.90;;;;;;5052290;28;19912;-75
2022/05/05 01:57:25;;;;;;;;;;;9.90;99.90;;;;;;5045382;28;19916;-75
2022/05/05 01:59:51;;;;;;;;;;;9.90;99.90;;;;;;5035900;28;19909;-76
2022/05/05 02:02:16;;;;;;;;;;;9.90;99.90;;;;;;5043191;28;19917;-74
2022/05/05 02:04:42;;;;;;;;;;;9.90;99.90;;;;;;5046064;28;20247;-75
2022/05/05 02:07:07;;;;;;;;;;;9.90;99.90;;;;;;5049868;28;20274;-74
2022/05/05 02:09:33;;;;;;;;;;;9.90;99.90;;;;;;5052598;28;19909;-75
2022/05/05 02:11:58;;;;;;;;;;;9.90;99.90;;;;;;5058288;28;19924;-75
2022/05/05 02:14:24;;;;;;;;;;;9.90;99.90;;;;;;5052797;28;19963;-75
2022/05/05 02:16:50;;;;;;;;;;;9.90;99.90;;;;;;5050242;28;19911;-75
2022/05/05 02:19:16;;;;;;;;;;;9.90;99.90;;;;;;5047398;28;19909;-74
2022/05/05 02:21:41;;;;;;;;;;;9.80;99.90;;;;;;5044321;28;20381;-74
2022/05/05 02:24:07;;;;;;;;;;;9.80;99.90;;;;;;5047114;28;20003;-73
2022/05/05 02:26:32;;;;;;;;;;;9.70;99.90;;;;;;5050431;28;19991;-75
2022/05/05 02:28:58;;;;;;;;;;;9.40;99.90;;;;;;5037126;28;19956;-73
2022/05/05 02:31:23;;;;;;;;;;;9.10;99.90;;;;;;5055842;28;19908;-74
2022/05/05 02:33:49;;;;;;;;;;;8.90;99.90;;;;;;5050875;28;19905;-74
2022/05/05 02:39:00;;;;;;;;;;;8.80;99.90;;;;;;5052329;28;20321;-75
2022/05/05 02:41:26;;;;;;;;;;;8.90;99.90;;;;;;5049812;28;19916;-75
2022/05/05 02:43:51;;;;;;;;;;;9.20;99.90;;;;;;5027768;28;19909;-74
2022/05/05 02:46:17;;;;;;;;;;;9.20;99.90;;;;;;5052679;28;19974;-74
2022/05/05 02:48:42;;;;;;;;;;;9.20;99.90;;;;;;5034180;28;19916;-74
2022/05/05 02:51:08;;;;;;;;;;;9.10;99.90;;;;;;5049254;28;20794;-74
2022/05/05 02:56:31;;;;;;;;;;;9.00;99.90;;;;;;5003743;28;19966;-74
2022/05/05 02:58:56;;;;;;;;;;;8.90;99.90;;;;;;5051114;28;19908;-75
2022/05/05 03:01:22;;;;;;;;;;;8.80;99.90;;;;;;5044851;28;20367;-73
2022/05/05 03:03:48;;;;;;;;;;;8.90;99.90;;;;;;5050251;28;19942;-74
2022/05/05 03:06:13;;;;;;;;;;;8.90;99.90;;;;;;5051657;28;20408;-74
2022/05/05 03:08:39;;;;;;;;;;;9.10;99.90;;;;;;5053374;28;19908;-74
2022/05/05 03:11:04;;;;;;;;;;;9.00;99.90;;;;;;5052349;28;19909;-74
2022/05/05 03:13:30;;;;;;;;;;;9.10;99.90;;;;;;5036544;28;19971;-74
2022/05/05 03:15:55;;;;;;;;;;;9.20;99.90;;;;;;5048272;28;19913;-74
2022/05/05 03:18:21;;;;;;;;;;;9.30;99.90;;;;;;5048636;28;20042;-74
2022/05/05 03:20:46;;;;;;;;;;;9.20;99.90;;;;;;5033205;28;19932;-74
2022/05/05 03:23:12;;;;;;;;;;;9.30;99.90;;;;;;5039986;28;19916;-74
2022/05/05 03:25:37;;;;;;;;;;;9.30;99.90;;;;;;5032113;28;19909;-73
2022/05/05 03:28:03;;;;;;;;;;;9.30;99.90;;;;;;5044333;28;20026;-74
2022/05/05 03:30:29;;;;;;;;;;;9.40;99.90;;;;;;5037824;28;19912;-75
2022/05/05 03:32:54;;;;;;;;;;;9.40;99.90;;;;;;5046144;28;19932;-75
2022/05/05 03:35:20;;;;;;;;;;;9.10;99.90;;;;;;5049231;28;19909;-74
2022/05/05 03:37:46;;;;;;;;;;;9.00;99.90;;;;;;5047152;28;19908;-73
2022/05/05 03:40:11;;;;;;;;;;;8.90;99.90;;;;;;5050577;28;19924;-75
2022/05/05 03:42:37;;;;;;;;;;;8.80;99.90;;;;;;5044161;28;20362;-74
2022/05/05 03:45:03;;;;;;;;;;;8.70;99.90;;;;;;5046887;28;20270;-74
2022/05/05 03:47:28;;;;;;;;;;;8.50;99.90;;;;;;5046161;28;19909;-74
2022/05/05 03:49:54;;;;;;;;;;;8.40;99.90;;;;;;5047420;28;19916;-74
2022/05/05 03:52:19;;;;;;;;;;;8.40;99.90;;;;;;5032935;28;19970;-74
2022/05/05 03:54:45;;;;;;;;;;;8.40;99.90;;;;;;5046732;28;19916;-73
2022/05/05 03:57:10;;;;;;;;;;;8.40;99.90;;;;;;5054069;28;20362;-74
2022/05/05 03:59:36;;;;;;;;;;;8.30;99.90;;;;;;5044175;28;20346;-74
2022/05/05 04:02:03;;;;;;;;;;;8.40;99.90;;;;;;5047672;28;19916;-74
2022/05/05 04:04:28;;;;;;;;;;;8.40;99.90;;;;;;5046567;28;20314;-74
2022/05/05 04:06:55;;;;;;;;;;;8.30;99.90;;;;;;5044377;28;19999;-74
2022/05/05 04:09:20;;;;;;;;;;;8.10;99.90;;;;;;5049150;28;19909;-74
2022/05/05 04:11:46;;;;;;;;;;;7.90;99.90;;;;;;5043283;28;20253;-74
2022/05/05 04:14:12;;;;;;;;;;;7.90;99.90;;;;;;5035712;28;19909;-73
2022/05/05 04:16:38;;;;;;;;;;;7.90;99.90;;;;;;5016625;28;19966;-74
2022/05/05 04:19:07;;;;;;;;;;;8.00;99.90;;;;;;5046772;28;19913;-74
2022/05/05 04:21:34;;;;;;;;;;;8.00;99.90;;;;;;5041948;28;21684;-74
2022/05/05 04:23:59;;;;;;;;;;;8.00;99.90;;;;;;5054217;28;20001;-74
2022/05/05 04:26:26;;;;;;;;;;;8.10;99.90;;;;;;5046720;28;20025;-74
2022/05/05 04:28:53;;;;;;;;;;;8.20;99.90;;;;;;5048055;28;20357;-75
2022/05/05 04:31:19;;;;;;;;;;;8.20;99.90;;;;;;5044856;28;20274;-75
2022/05/05 04:33:45;;;;;;;;;;;8.30;99.90;;;;;;5048323;28;19916;-75
2022/05/05 04:36:12;;;;;;;;;;;8.20;99.90;;;;;;5049160;28;19909;-73
2022/05/05 04:38:37;;;;;;;;;;;8.10;99.90;;;;;;5030580;28;20531;-74
2022/05/05 04:41:03;;;;;;;;;;;8.00;99.90;;;;;;5046846;28;19991;-75
2022/05/05 04:43:29;;;;;;;;;;;7.90;99.90;;;;;;5053426;28;19982;-74
2022/05/05 04:45:54;;;;;;;;;;;7.90;99.90;;;;;;5046962;28;19959;-74
2022/05/05 04:48:20;;;;;;;;;;;7.80;99.90;;;;;;5045813;28;19909;-74
2022/05/05 04:50:45;;;;;;;;;;;7.60;99.90;;;;;;5048834;28;19916;-75
2022/05/05 04:53:11;;;;;;;;;;;7.50;99.90;;;;;;5046407;28;19997;-75
2022/05/05 04:55:39;;;;;;;;;;;7.50;99.90;;;;;;5045007;28;19916;-75
2022/05/05 04:58:05;;;;;;;;;;;7.50;99.90;;;;;;5052067;28;20321;-75
2022/05/05 05:00:31;;;;;;;;;;;7.40;99.90;;;;;;5044749;28;20381;-75
2022/05/05 05:02:57;;;;;;;;;;;7.30;99.90;;;;;;5028558;28;19909;-74
2022/05/05 05:05:22;;;;;;;;;;;7.30;99.90;;;;;;5045294;28;19955;-74
2022/05/05 05:07:48;;;;;;;;;;;7.40;99.90;;;;;;5043424;28;19909;-74
2022/05/05 05:10:14;;;;;;;;;;;7.50;99.90;;;;;;5051118;28;19909;-74
2022/05/05 05:12:39;;;;;;;;;;;7.50;99.90;;;;;;5046096;28;19917;-76
2022/05/05 05:15:05;;;;;;;;;;;7.50;99.90;;;;;;5040297;28;19908;-74
2022/05/05 05:17:31;;;;;;;;;;;7.60;99.90;;;;;;5046478;28;19909;-74
2022/05/05 05:19:59;;;;;;;;;;;7.70;99.90;;;;;;5047341;28;19915;-75
2022/05/05 05:22:25;;;;;;;;;;;7.80;99.90;;;;;;5046616;28;19921;-74
2022/05/05 05:24:51;;;;;;;;;;;7.80;99.90;;;;;;5052674;28;20049;-75
2022/05/05 05:27:16;;;;;;;;;;;8.00;99.90;;;;;;5046898;28;20166;-74
2022/05/05 05:29:42;;;;;;;;;;;8.00;99.90;;;;;;5053023;28;20065;-74
2022/05/05 05:32:08;;;;;;;;;;;8.20;99.90;;;;;;5050331;28;19931;-74
2022/05/05 05:34:33;;;;;;;;;;;8.30;99.90;;;;;;5033703;28;19931;-75
2022/05/05 05:36:59;;;;;;;;;;;8.50;99.90;;;;;;5048529;28;19935;-74
2022/05/05 05:39:24;;;;;;;;;;;8.60;99.90;;;;;;5046649;28;19931;-74
2022/05/05 05:41:50;;;;;;;;;;;8.80;99.90;;;;;;5038341;28;19916;-76
2022/05/05 05:44:15;;;;;;;;;;;9.10;99.90;;;;;;5051117;28;19908;-75
2022/05/05 05:46:41;;;;;;;;;;;9.40;99.90;;;;;;5030842;28;19916;-74
2022/05/05 05:49:07;;;;;;;;;;;9.70;99.90;;;;;;5050625;28;19963;-74
2022/05/05 05:51:33;;;;;;;;;;;10.00;99.90;;;;;;5030039;28;19913;-74
2022/05/05 05:53:59;;;;;;;;;;;10.20;99.90;;;;;;5034215;28;20039;-75
2022/05/05 05:56:24;;;;;;;;;;;10.40;99.90;;;;;;5047186;28;20340;-75
2022/05/05 05:58:50;;;;;;;;;;;10.50;99.90;;;;;;5044020;28;19924;-75
2022/05/05 06:01:15;;;;;;;;;;;10.70;99.90;;;;;;5043523;28;19994;-74
2022/05/05 06:03:56;;;;;;;;;;;10.80;99.90;;;;;;5045225;28;19999;-74
2022/05/05 06:06:22;;;;;;;;;;;11.00;99.90;;;;;;5049817;28;19909;-74
2022/05/05 06:08:49;;;;;;;;;;;11.20;99.90;;;;;;5027261;28;19916;-75
2022/05/05 06:11:19;;;;;;;;;;;11.40;99.90;;;;;;5048393;28;20336;-73
2022/05/05 06:13:44;;;;;;;;;;;11.50;99.90;;;;;;5035812;28;20293;-73
2022/05/05 06:16:10;;;;;;;;;;;11.70;99.90;;;;;;5030770;28;19908;-74
2022/05/05 06:18:36;;;;;;;;;;;11.90;99.90;;;;;;5045868;28;20351;-74
2022/05/05 06:21:02;;;;;;;;;;;12.00;99.90;;;;;;5049644;28;19917;-74
2022/05/05 06:23:28;;;;;;;;;;;12.20;99.90;;;;;;5045941;28;19970;-75
2022/05/05 06:25:53;;;;;;;;;;;12.30;99.90;;;;;;5048852;28;20354;-75
2022/05/05 06:28:19;;;;;;;;;;;12.40;99.90;;;;;;5049367;28;19971;-75
2022/05/05 06:30:44;;;;;;;;;;;12.40;99.90;;;;;;5036800;28;19962;-74
2022/05/05 06:33:10;;;;;;;;;;;12.50;99.90;;;;;;5037084;28;19959;-75
2022/05/05 06:35:36;;;;;;;;;;;12.60;99.90;;;;;;5024146;28;19909;-74
2022/05/05 06:38:08;;;;;;;;;;;12.80;99.90;;;;;;5041689;28;19916;-75
2022/05/05 06:40:36;;;;;;;;;;;12.90;99.90;;;;;;5038900;28;20016;-75
2022/05/05 06:43:02;;;;;;;;;;;13.10;99.90;;;;;;5021802;28;19919;-74
2022/05/05 06:45:28;;;;;;;;;;;13.20;99.90;;;;;;5038127;28;19913;-75
2022/05/05 06:47:54;;;;;;;;;;;13.30;99.90;;;;;;5040853;28;19919;-74
2022/05/05 06:50:21;;;;;;;;;;;13.50;99.90;;;;;;5025190;28;20285;-73
2022/05/05 06:52:47;;;;;;;;;;;13.60;99.90;;;;;;5046635;28;20233;-74
2022/05/05 06:55:13;;;;;;;;;;;13.80;99.90;;;;;;5043851;28;20416;-74
2022/05/05 06:57:38;;;;;;;;;;;14.00;99.90;;;;;;5041949;28;19908;-75
2022/05/05 07:00:04;;;;;;;;;;;13.90;99.90;;;;;;5044408;28;20358;-76
2022/05/05 07:02:30;;;;;;;;;;;13.90;99.90;;;;;;5041670;28;19939;-76
2022/05/05 07:07:39;;;;;;;;;;;14.10;99.90;;;;;;5049929;28;19959;-74
2022/05/05 07:12:49;;;;;;;;;;;14.40;99.90;;;;;;5051784;28;20282;-72
2022/05/05 07:15:15;;;;;;;;;;;14.30;99.90;;;;;;5051278;28;19909;-69
2022/05/05 07:17:41;;;;;;;;;;;14.30;99.90;;;;;;5048993;28;20382;-72
2022/05/05 07:20:07;;;;;;;;;;;14.30;99.90;;;;;;5044446;28;19972;-74
2022/05/05 07:22:32;;;;;;;;;;;14.20;99.90;;;;;;5050709;28;20297;-74
2022/05/05 07:24:59;;;;;;;;;;;14.20;99.90;;;;;;5050371;28;20379;-72
2022/05/05 07:27:28;;;;;;;;;;;14.10;99.90;;;;;;5047168;28;19951;-70
2022/05/05 07:29:53;;;;;;;;;;;14.10;99.90;;;;;;5050613;28;19931;-68
2022/05/05 07:32:19;;;;;;;;;;;14.00;99.90;;;;;;5034964;28;19909;-71
2022/05/05 07:34:45;;;;;;;;;;;14.00;99.90;;;;;;5052501;28;19955;-69
2022/05/05 07:37:10;;;;;;;;;;;14.20;99.90;;;;;;5043152;28;20356;-71
2022/05/05 07:39:36;;;;;;;;;;;14.30;99.90;;;;;;5041111;28;19909;-71
2022/05/05 07:42:02;;;;;;;;;;;14.50;99.90;;;;;;5052908;28;19968;-71
2022/05/05 07:44:27;;;;;;;;;;;14.60;99.90;;;;;;5050215;28;19944;-69
2022/05/05 07:46:54;;;;;;;;;;;14.60;99.90;;;;;;5043779;28;19962;-69
2022/05/05 07:49:20;;;;;;;;;;;14.70;99.90;;;;;;5046821;28;19909;-71
2022/05/05 07:51:50;;;;;;;;;;;14.80;99.90;;;;;;5044258;28;19954;-73
2022/05/05 07:54:34;;;;;;;;;;;14.90;99.90;;;;;;5043999;28;19967;-72
2022/05/05 07:57:00;;;;;;;;;;;14.90;99.90;;;;;;5047151;28;19916;-74
2022/05/05 07:59:25;;;;;;;;;;;15.00;99.90;;;;;;5053882;28;19917;-71
2022/05/05 08:01:51;;;;;;;;;;;14.90;99.90;;;;;;5041759;28;20346;-72
2022/05/05 08:04:17;;;;;;;;;;;15.00;99.90;;;;;;5042803;28;19916;-72
2022/05/05 08:06:42;;;;;;;;;;;15.20;99.90;;;;;;5051190;28;20359;-71
2022/05/05 08:09:08;;;;;;;;;;;15.20;99.90;;;;;;5053975;28;19912;-72
2022/05/05 08:11:35;;;;;;;;;;;15.20;99.90;;;;;;5054615;28;19954;-72
2022/05/05 08:14:01;;;;;;;;;;;15.20;99.90;;;;;;5052929;28;19909;-71
2022/05/05 08:16:27;;;;;;;;;;;15.20;99.90;;;;;;5053910;28;19916;-73
2022/05/05 08:18:53;;;;;;;;;;;15.20;99.90;;;;;;5053518;28;20239;-73
2022/05/05 08:21:18;;;;;;;;;;;15.10;99.90;;;;;;5036965;28;19917;-72
2022/05/05 08:23:44;;;;;;;;;;;15.20;99.90;;;;;;5048893;28;19912;-73
2022/05/05 08:28:53;;;;;;;;;;;15.10;99.90;;;;;;5051960;28;19931;-69
2022/05/05 08:31:19;;;;;;;;;;;15.10;99.90;;;;;;5035354;28;19910;-70
2022/05/05 08:33:45;;;;;;;;;;;15.10;99.90;;;;;;5053864;28;20422;-71
2022/05/05 08:36:10;;;;;;;;;;;15.00;99.90;;;;;;5038221;28;19908;-70
2022/05/05 08:38:36;;;;;;;;;;;15.00;99.90;;;;;;5053439;28;19952;-72
2022/05/05 08:41:02;;;;;;;;;;;15.10;99.90;;;;;;5056408;28;19919;-71
2022/05/05 08:43:28;;;;;;;;;;;15.00;99.90;;;;;;5047215;28;19947;-71
2022/05/05 08:45:55;;;;;;;;;;;15.00;99.90;;;;;;5031204;28;19999;-72
2022/05/05 08:48:21;;;;;;;;;;;14.90;99.90;;;;;;5056585;28;20373;-70
2022/05/05 08:50:54;;;;;;;;;;;14.80;99.90;;;;;;5038916;28;19909;-71
2022/05/05 08:53:24;;;;;;;;;;;14.70;99.90;;;;;;5036933;28;19909;-69
2022/05/05 08:55:49;;;;;;;;;;;14.60;99.90;;;;;;5055360;28;20019;-70
2022/05/05 08:58:16;;;;;;;;;;;14.60;99.90;;;;;;5056875;28;20298;-73
2022/05/05 09:00:41;;;;;;;;;;;14.60;99.90;;;;;;5054701;28;19924;-73
2022/05/05 09:03:09;;;;;;;;;;;14.80;99.90;;;;;;5054115;28;19909;-72
2022/05/05 09:05:44;;;;;;;;;;;14.90;99.90;;;;;;5049179;28;19912;-73
2022/05/05 09:08:24;;;;;;;;;;;15.00;99.90;;;;;;5043927;28;19924;-73
2022/05/05 09:10:51;;;;;;;;;;;15.10;99.90;;;;;;5042354;28;20015;-73
2022/05/05 09:13:24;;;;;;;;;;;15.10;99.90;;;;;;5022184;28;20012;-72
2022/05/05 09:15:53;;;;;;;;;;;15.20;99.90;;;;;;5037196;28;19936;-76
2022/05/05 09:18:19;;;;;;;;;;;15.30;99.90;;;;;;5050001;28;19931;-74
2022/05/05 09:20:45;;;;;;;;;;;15.50;99.90;;;;;;5032981;28;19968;-72
2022/05/05 09:23:29;;;;;;;;;;;15.60;99.90;;;;;;5036748;28;20050;-73
2022/05/05 09:25:57;;;;;;;;;;;15.90;99.90;;;;;;5020008;28;19944;-73
2022/05/05 09:28:32;;;;;;;;;;;16.10;99.90;;;;;;5036924;28;19984;-73
2022/05/05 09:31:16;;;;;;;;;;;16.10;99.90;;;;;;5032448;28;19909;-73
2022/05/05 09:33:42;;;;;;;;;;;16.30;99.90;;;;;;5030919;28;20069;-73
2022/05/05 09:36:09;;;;;;;;;;;16.40;99.90;;;;;;5036917;28;19909;-74
2022/05/05 09:38:54;;;;;;;;;;;16.10;99.90;;;;;;5050083;28;20636;-71
2022/05/05 09:41:21;;;;;;;;;;;16.00;99.90;;;;;;5032734;28;19939;-73
2022/05/05 09:43:46;;;;;;;;;;;16.00;99.90;;;;;;5035427;28;19936;-72
2022/05/05 09:46:21;;;;;;;;;;;16.10;99.90;;;;;;5031838;28;19909;-73
2022/05/05 09:48:46;;;;;;;;;;;16.20;99.90;;;;;;5032039;28;20283;-72
2022/05/05 09:51:12;;;;;;;;;;;16.30;99.90;;;;;;5033276;28;19916;-72
2022/05/05 09:59:14;;;;;;;;;;;16.80;99.90;;;;;;5029446;28;19963;-72
2022/05/05 10:01:41;;;;;;;;;;;16.80;99.90;;;;;;5029254;28;20015;-73
2022/05/05 10:04:09;;;;;;;;;;;16.70;99.90;;;;;;5028012;28;19948;-73
2022/05/05 10:06:42;;;;;;;;;;;16.60;99.90;;;;;;5034954;28;19913;-72
2022/05/05 10:09:14;;;;;;;;;;;16.50;99.90;;;;;;5035248;28;19920;-73
2022/05/05 10:11:40;;;;;;;;;;;16.60;99.90;;;;;;5026213;28;20371;-73
2022/05/05 10:14:07;;;;;;;;;;;16.90;99.90;;;;;;5052759;28;19915;-72
2022/05/05 10:16:33;;;;;;;;;;;17.10;99.90;;;;;;5008260;28;19947;-73
2022/05/05 10:18:59;;;;;;;;;;;17.20;99.90;;;;;;5044723;28;19909;-73
2022/05/05 10:21:35;;;;;;;;;;;17.20;99.90;;;;;;5049170;28;20439;-73
2022/05/05 10:24:05;;;;;;;;;;;17.30;99.90;;;;;;5048151;28;19920;-73
2022/05/05 10:26:31;;;;;;;;;;;17.30;99.90;;;;;;5024709;28;19913;-73
2022/05/05 10:28:57;;;;;;;;;;;17.20;99.90;;;;;;5050423;28;19913;-74
2022/05/05 10:31:33;;;;;;;;;;;17.30;99.90;;;;;;5049327;28;20272;-74
2022/05/05 10:34:00;;;;;;;;;;;17.20;99.90;;;;;;5028711;28;19923;-72
2022/05/05 10:36:27;;;;;;;;;;;17.30;99.90;;;;;;5045973;28;20382;-71
2022/05/05 10:38:53;;;;;;;;;;;17.40;99.90;;;;;;5066622;28;20049;-73
2022/05/05 10:41:40;;;;;;;;;;;17.40;99.90;;;;;;5035970;28;19956;-73
2022/05/05 10:44:26;;;;;;;;;;;17.50;99.90;;;;;;5048260;28;19909;-73
2022/05/05 10:47:04;;;;;;;;;;;17.50;99.90;;;;;;5046858;28;19909;-71
2022/05/05 10:49:48;;;;;;;;;;;17.40;99.90;;;;;;5056728;28;19913;-72
2022/05/05 10:52:14;;;;;;;;;;;17.50;99.90;;;;;;5057221;28;19913;-74
2022/05/05 10:54:40;;;;;;;;;;;17.50;99.90;;;;;;5054236;28;19915;-73
2022/05/05 10:57:24;;;;;;;;;;;17.60;99.90;;;;;;5055188;28;19999;-72
2022/05/05 11:00:09;;;;;;;;;;;17.70;99.90;;;;;;5058122;28;19908;-72
2022/05/05 11:02:35;;;;;;;;;;;18.00;99.90;;;;;;5054455;28;20355;-73
2022/05/05 11:05:21;;;;;;;;;;;18.20;99.90;;;;;;5037590;28;20390;-73
2022/05/05 11:07:49;;;;;;;;;;;18.20;99.90;;;;;;5049049;28;20012;-73
2022/05/05 11:10:38;;;;;;;;;;;18.50;99.90;;;;;;5059310;28;19920;-73
2022/05/05 11:13:04;;;;;;;;;;;18.60;99.90;;;;;;5053498;28;19928;-72
2022/05/05 11:21:32;;;;;;;;;;;18.50;99.90;;;;;;5053105;28;20297;-73
2022/05/05 11:24:00;;;;;;;;;;;18.50;99.90;;;;;;5057014;28;19921;-73
2022/05/05 11:26:26;;;;;;;;;;;18.60;99.90;;;;;;5059885;28;19924;-73
2022/05/05 11:28:53;;;;;;;;;;;18.80;99.90;;;;;;5049263;28;19967;-72
2022/05/05 11:31:27;;;;;;;;;;;19.00;99.40;;;;;;5058063;28;19935;-73
2022/05/05 11:33:53;;;;;;;;;;;19.10;97.60;;;;;;5056632;28;19912;-73
2022/05/05 11:36:19;;;;;;;;;;;19.30;97.70;;;;;;5054934;28;20419;-73
2022/05/05 11:38:45;;;;;;;;;;;19.30;97.20;;;;;;5034149;28;20008;-74
2022/05/05 11:41:10;;;;;;;;;;;19.30;97.30;;;;;;5041874;28;19921;-73
2022/05/05 11:46:20;;;;;;;;;;;19.00;97.50;;;;;;5058125;28;19916;-73
2022/05/05 11:48:53;;;;;;;;;;;19.00;98.10;;;;;;5056441;28;19924;-72
2022/05/05 11:51:23;;;;;;;;;;;19.20;97.30;;;;;;5037251;28;19909;-73
2022/05/05 11:53:49;;;;;;;;;;;19.30;97.50;;;;;;5056897;28;19963;-74
2022/05/05 11:56:15;;;;;;;;;;;19.40;97.20;;;;;;5059129;28;19913;-72
2022/05/05 12:01:39;;;;;;;;;;;19.80;96.20;;;;;;5059111;28;20443;-74
2022/05/05 12:04:06;;;;;;;;;;;19.80;96.20;;;;;;5046855;28;19912;-74
2022/05/05 12:06:32;;;;;;;;;;;19.70;96.60;;;;;;5057034;28;19917;-74
2022/05/05 12:08:58;;;;;;;;;;;19.70;96.40;;;;;;5058817;28;19920;-74
2022/05/05 12:11:27;;;;;;;;;;;19.70;96.70;;;;;;5045438;28;19976;-75
2022/05/05 12:14:00;;;;;;;;;;;19.80;96.30;;;;;;5053822;28;19916;-74
2022/05/05 12:16:34;;;;;;;;;;;20.00;96.30;;;;;;5036928;28;20263;-70
2022/05/05 12:19:00;;;;;;;;;;;20.20;96.10;;;;;;5050391;28;19908;-69
2022/05/05 12:21:26;;;;;;;;;;;20.40;95.70;;;;;;5021612;28;19974;-72
2022/05/05 12:24:02;;;;;;;;;;;20.60;94.60;;;;;;5033507;28;19917;-74
2022/05/05 12:26:36;;;;;;;;;;;20.60;94.30;;;;;;5044470;28;20370;-74
2022/05/05 12:29:12;;;;;;;;;;;20.60;95.10;;;;;;5054278;28;19909;-73
2022/05/05 12:31:37;;;;;;;;;;;20.50;95.70;;;;;;5038395;28;20378;-73
2022/05/05 12:34:03;;;;;;;;;;;20.40;95.80;;;;;;5030287;28;19917;-74
2022/05/05 12:36:29;;;;;;;;;;;20.60;95.10;;;;;;5053046;28;19928;-73
2022/05/05 12:39:11;;;;;;;;;;;20.40;94.70;;;;;;5040687;28;19962;-74
2022/05/05 12:41:36;;;;;;;;;;;20.50;94.10;;;;;;5055322;28;19913;-72
2022/05/05 12:44:08;;;;;;;;;;;20.40;94.60;;;;;;5058769;28;19916;-75
2022/05/05 12:46:52;;;;;;;;;;;20.30;95.10;;;;;;5055272;28;20057;-73
2022/05/05 12:49:39;;;;;;;;;;;20.20;95.30;;;;;;5053517;28;19909;-74
2022/05/05 12:52:06;;;;;;;;;;;20.30;95.50;;;;;;5051426;28;19908;-73
2022/05/05 13:00:00;;;;;;;;;;;20.30;95.60;;;;;;5054935;28;20078;-72
2022/05/05 13:02:25;;;;;;;;;;;20.20;96.00;;;;;;5061089;28;19975;-73
2022/05/05 13:04:51;;;;;;;;;;;20.20;96.20;;;;;;5055965;28;20007;-75
2022/05/05 13:07:19;;;;;;;;;;;20.20;96.50;;;;;;5039363;28;19909;-74
2022/05/05 13:09:45;;;;;;;;;;;20.40;96.30;;;;;;5057456;28;19912;-74
2022/05/05 13:12:11;;;;;;;;;;;20.70;95.60;;;;;;5053556;28;19939;-76
2022/05/05 13:14:36;;;;;;;;;;;20.70;95.20;;;;;;5036694;28;19913;-74
2022/05/05 13:17:03;;;;;;;;;;;20.50;95.30;;;;;;5039643;28;19962;-73
2022/05/05 13:19:29;;;;;;;;;;;20.40;95.10;;;;;;5054795;28;20058;-73
2022/05/05 13:21:55;;;;;;;;;;;20.70;95.20;;;;;;5045364;28;19913;-74
2022/05/05 13:24:20;;;;;;;;;;;20.60;95.50;;;;;;5058303;28;20041;-74
2022/05/05 13:26:46;;;;;;;;;;;20.90;95.20;;;;;;5055558;28;19916;-73
2022/05/05 13:29:13;;;;;;;;;;;21.00;95.30;;;;;;5055160;28;19908;-73
2022/05/05 13:31:39;;;;;;;;;;;20.80;96.50;;;;;;5022603;28;19971;-73
2022/05/05 13:34:04;;;;;;;;;;;20.70;97.30;;;;;;5056237;28;19999;-73
2022/05/05 13:36:30;;;;;;;;;;;20.80;97.30;;;;;;5032055;28;19956;-73
2022/05/05 13:38:56;;;;;;;;;;;20.90;96.80;;;;;;5050550;28;20324;-72
2022/05/05 13:41:22;;;;;;;;;;;21.00;96.80;;;;;;5052773;28;19912;-73
2022/05/05 13:43:47;;;;;;;;;;;21.00;96.60;;;;;;5029347;28;19973;-74
2022/05/05 13:46:13;;;;;;;;;;;21.00;96.60;;;;;;5044713;28;19920;-73
2022/05/05 13:48:38;;;;;;;;;;;21.00;96.70;;;;;;5051071;28;19908;-75
2022/05/05 13:51:04;;;;;;;;;;;21.00;96.50;;;;;;5044178;28;20390;-73
2022/05/05 13:53:31;;;;;;;;;;;20.90;96.60;;;;;;5052589;28;19956;-74
2022/05/05 13:55:56;;;;;;;;;;;20.90;96.80;;;;;;5051934;28;19956;-73
2022/05/05 13:58:24;;;;;;;;;;;20.90;97.00;;;;;;5037265;28;19931;-70
2022/05/05 14:00:49;;;;;;;;;;;21.00;97.40;;;;;;5051491;28;19972;-71
2022/05/05 14:03:15;;;;;;;;;;;20.80;98.10;;;;;;5050289;28;20711;-71
2022/05/05 14:05:41;;;;;;;;;;;21.00;97.70;;;;;;5031431;28;19909;-70
2022/05/05 14:13:35;;;;;;;;;;;21.00;97.40;;;;;;5044827;28;19924;-71
2022/05/05 14:16:00;;;;;;;;;;;20.80;97.60;;;;;;5051525;28;19912;-71
2022/05/05 14:18:26;;;;;;;;;;;20.80;97.90;;;;;;5046553;28;19957;-71
2022/05/05 14:20:52;;;;;;;;;;;20.90;97.90;;;;;;5053140;28;19949;-74
2022/05/05 14:23:19;;;;;;;;;;;20.90;98.10;;;;;;5039896;28;19928;-70
2022/05/05 14:25:44;;;;;;;;;;;21.20;98.10;;;;;;5056928;28;19912;-70
2022/05/05 14:28:13;;;;;;;;;;;21.30;97.30;;;;;;5056377;28;19927;-72
2022/05/05 14:30:39;;;;;;;;;;;21.20;97.20;;;;;;5043433;28;19924;-70
2022/05/05 14:33:04;;;;;;;;;;;21.00;97.00;;;;;;5047801;28;19909;-71
2022/05/05 14:35:30;;;;;;;;;;;20.80;97.60;;;;;;5049479;28;19908;-72
2022/05/05 14:37:56;;;;;;;;;;;20.90;97.70;;;;;;5054152;28;19915;-73
2022/05/05 14:40:21;;;;;;;;;;;21.00;97.10;;;;;;5046557;28;20046;-73
2022/05/05 14:42:50;;;;;;;;;;;21.00;97.50;;;;;;5051407;28;19920;-72
2022/05/05 14:45:17;;;;;;;;;;;21.10;97.30;;;;;;5045060;28;19954;-72
2022/05/05 14:47:46;;;;;;;;;;;21.20;97.40;;;;;;5047032;28;20305;-71
2022/05/05 14:50:12;;;;;;;;;;;21.00;97.40;;;;;;5019677;28;19909;-71
2022/05/05 14:52:37;;;;;;;;;;;21.10;97.30;;;;;;5045170;28;19996;-72
2022/05/05 14:55:04;;;;;;;;;;;21.00;97.50;;;;;;5050175;28;19920;-70
2022/05/05 14:57:30;;;;;;;;;;;21.00;97.80;;;;;;5032951;28;19916;-71
2022/05/05 14:59:56;;;;;;;;;;;21.00;97.80;;;;;;5047937;28;20347;-71
2022/05/05 15:02:21;;;;;;;;;;;21.20;97.20;;;;;;5025091;28;19921;-71
2022/05/05 15:04:47;;;;;;;;;;;21.20;96.90;;;;;;5044747;28;19948;-71
2022/05/05 15:07:12;;;;;;;;;;;21.20;96.40;;;;;;5045209;28;20363;-70
2022/05/05 15:09:38;;;;;;;;;;;21.30;96.10;;;;;;5044768;28;20035;-71
2022/05/05 15:12:04;;;;;;;;;;;21.20;96.60;;;;;;5052219;28;20010;-72